Kakushu Maru — JG5688 — position and weather

sailwx.info

Track history (hours):
 
Tides and Currents Weather Stations Pressure Air Temp Water Temp Dewpoint Dewpoint Depression Visibility Wind Speed Wind Dir Waves Ship Positions

Kakushu Maru

Last reported at 2015-Jul-31 10:21 UTC. Time now 2015-Aug-01 16:10 UTC.
Position N 33°57' E 130°26'.

Length 105 m; draft 4.7 m.

Type: Tanker. MMSI: 431101016.

Date/timePositionNaut miles runAvg speedWind from/ knotsBaromVisibWave heightAir tempDewpointWater temp
2015-Jul-31 10:21N 33°57' E 130°26'1113.3
2015-Jul-31 09:33N 33°48' E 130°18'1110.8
2015-Jul-31 08:33N 33°37' E 130°22'1 1.4
2015-Jul-31 07:31N 33°36' E 130°23'0 0.0
2015-Jul-31 06:32N 33°36' E 130°23'0 0.0
2015-Jul-31 05:31N 33°36' E 130°23'0 0.0
2015-Jul-31 04:31N 33°36' E 130°23'0 0.1
2015-Jul-31 03:33N 33°36' E 130°23'3 2.4
2015-Jul-31 02:31N 33°37' E 130°20'0 0.1
2015-Jul-31 01:32N 33°37' E 130°20'0 0.1
2015-Jul-31 00:31N 33°37' E 130°21'0 0.0
2015-Jul-30 23:28N 33°37' E 130°21'0 0.0
2015-Jul-30 22:32N 33°37' E 130°21'0 0.0
2015-Jul-30 21:31N 33°37' E 130°21'0 0.0
2015-Jul-30 20:25N 33°37' E 130°21'0 0.0
2015-Jul-30 19:29N 33°37' E 130°21'0 0.0
2015-Jul-30 18:32N 33°37' E 130°21'0 0.1
2015-Jul-30 17:32N 33°38' E 130°20'7 6.9
2015-Jul-30 16:33N 33°44' E 130°17'1413.1
2015-Jul-30 15:27N 33°57' E 130°24'1 0.0
2015-Jul-29 08:23N 33°56' E 130°24'1113.7
2015-Jul-29 07:33N 33°46' E 130°18'1110.5
2015-Jul-29 06:33N 33°36' E 130°23'0 0.1
2015-Jul-29 05:33N 33°36' E 130°23'0 0.0
2015-Jul-29 04:33N 33°36' E 130°23'0 0.0
2015-Jul-29 03:33N 33°36' E 130°23'0 0.0
2015-Jul-29 02:30N 33°36' E 130°23'1 1.0
2015-Jul-29 01:33N 33°37' E 130°23'2 2.5
2015-Jul-29 00:33N 33°38' E 130°20'0 0.1
2015-Jul-28 23:30N 33°38' E 130°20'0 0.0
2015-Jul-28 22:27N 33°38' E 130°20'0 0.0
2015-Jul-28 21:33N 33°38' E 130°20'0 0.0
2015-Jul-28 20:33N 33°38' E 130°20'0 0.0
2015-Jul-28 19:33N 33°38' E 130°20'0 0.0
2015-Jul-28 18:27N 33°38' E 130°20'0 0.5
2015-Jul-28 17:32N 33°38' E 130°20'1110.8
2015-Jul-28 16:33N 33°49' E 130°19'232 8.2
2015-Jul-27 12:24N 34°36' E 134°54'1213.6
2015-Jul-27 11:33N 34°35' E 135°08'1413.8
2015-Jul-27 10:33N 34°32' E 135°24'0 0.0
2015-Jul-27 00:05N 34°32' E 135°25'0 0.0
2015-Jul-26 23:33N 34°32' E 135°25'2 2.2
2015-Jul-26 22:34N 34°33' E 135°23'3 2.7
2015-Jul-26 21:22N 34°32' E 135°19'0 0.0
2015-Jul-26 20:22N 34°32' E 135°19'0 0.0
2015-Jul-26 19:16N 34°32' E 135°19'0 0.0
2015-Jul-26 18:22N 34°32' E 135°19'0 0.0
2015-Jul-26 17:28N 34°32' E 135°19'0 0.0
2015-Jul-26 16:16N 34°32' E 135°19'0 0.0
2015-Jul-26 15:28N 34°32' E 135°19'3 3.2
2015-Jul-26 14:32N 34°33' E 135°15'1414.2
2015-Jul-26 13:32N 34°37' E 134°59'235 7.5
2015-Jul-25 06:15N 33°51' E 130°20'1014.4
2015-Jul-25 05:33N 33°42' E 130°16'8 7.9
2015-Jul-25 04:32N 33°36' E 130°23'0 0.0
2015-Jul-25 02:14N 33°36' E 130°23'0 0.0
2015-Jul-25 01:32N 33°36' E 130°23'0 0.0
2015-Jul-25 00:32N 33°36' E 130°23'1 0.6
2015-Jul-24 23:33N 33°37' E 130°23'2 1.5
2015-Jul-24 22:31N 33°37' E 130°21'0 0.0
2015-Jul-24 21:31N 33°37' E 130°21'1 1.0
2015-Jul-24 20:33N 33°38' E 130°20'1211.3
2015-Jul-24 19:30N 33°50' E 130°20'6 0.2
2015-Jul-23 07:15N 33°56' E 130°23'1014.7
2015-Jul-23 06:33N 33°46' E 130°18'1110.9
2015-Jul-23 05:33N 33°36' E 130°23'0 0.1
2015-Jul-23 04:25N 33°36' E 130°23'0 0.0
2015-Jul-23 03:31N 33°36' E 130°23'0 0.0
2015-Jul-23 02:28N 33°36' E 130°23'0 0.0
2015-Jul-23 01:31N 33°36' E 130°23'0 0.0
2015-Jul-23 00:31N 33°36' E 130°23'0 0.0
2015-Jul-22 23:31N 33°36' E 130°23'2 2.2
2015-Jul-22 22:33N 33°37' E 130°21'0 0.0
2015-Jul-22 21:32N 33°37' E 130°21'0 0.0
2015-Jul-22 20:32N 33°37' E 130°21'0 0.0
2015-Jul-22 19:32N 33°37' E 130°21'0 0.0
2015-Jul-22 18:32N 33°37' E 130°21'0 0.0
2015-Jul-22 17:32N 33°37' E 130°21'7 7.4
2015-Jul-22 16:33N 33°44' E 130°17'  
Track history (hours):
 
Tides and Currents Weather Stations Pressure Air Temp Water Temp Dewpoint Dewpoint Depression Visibility Wind Speed Wind Dir Waves Ship Positions

Kakushu Maru

Last reported at 2015-Jul-31 10:21 UTC. Time now 2015-Aug-01 16:10 UTC.
Position N 33°57' E 130°26'.

Length 105 m; draft 4.7 m.

Type: Tanker. MMSI: 431101016.

Date/timePositionNaut miles runAvg speedWind from/ knotsBaromVisibWave heightAir tempDewpointWater temp
2015-Jul-31 10:21N 33°57' E 130°26'1113.3
2015-Jul-31 09:33N 33°48' E 130°18'1110.8
2015-Jul-31 08:33N 33°37' E 130°22'1 1.4
2015-Jul-31 07:31N 33°36' E 130°23'0 0.0
2015-Jul-31 06:32N 33°36' E 130°23'0 0.0
2015-Jul-31 05:31N 33°36' E 130°23'0 0.0
2015-Jul-31 04:31N 33°36' E 130°23'0 0.1
2015-Jul-31 03:33N 33°36' E 130°23'3 2.4
2015-Jul-31 02:31N 33°37' E 130°20'0 0.1
2015-Jul-31 01:32N 33°37' E 130°20'0 0.1
2015-Jul-31 00:31N 33°37' E 130°21'0 0.0
2015-Jul-30 23:28N 33°37' E 130°21'0 0.0
2015-Jul-30 22:32N 33°37' E 130°21'0 0.0
2015-Jul-30 21:31N 33°37' E 130°21'0 0.0
2015-Jul-30 20:25N 33°37' E 130°21'0 0.0
2015-Jul-30 19:29N 33°37' E 130°21'0 0.0
2015-Jul-30 18:32N 33°37' E 130°21'0 0.1
2015-Jul-30 17:32N 33°38' E 130°20'7 6.9
2015-Jul-30 16:33N 33°44' E 130°17'1413.1
2015-Jul-30 15:27N 33°57' E 130°24'1 0.0
2015-Jul-29 08:23N 33°56' E 130°24'1113.7
2015-Jul-29 07:33N 33°46' E 130°18'1110.5
2015-Jul-29 06:33N 33°36' E 130°23'0 0.1
2015-Jul-29 05:33N 33°36' E 130°23'0 0.0
2015-Jul-29 04:33N 33°36' E 130°23'0 0.0
2015-Jul-29 03:33N 33°36' E 130°23'0 0.0
2015-Jul-29 02:30N 33°36' E 130°23'1 1.0
2015-Jul-29 01:33N 33°37' E 130°23'2 2.5
2015-Jul-29 00:33N 33°38' E 130°20'0 0.1
2015-Jul-28 23:30N 33°38' E 130°20'0 0.0
2015-Jul-28 22:27N 33°38' E 130°20'0 0.0
2015-Jul-28 21:33N 33°38' E 130°20'0 0.0
2015-Jul-28 20:33N 33°38' E 130°20'0 0.0
2015-Jul-28 19:33N 33°38' E 130°20'0 0.0
2015-Jul-28 18:27N 33°38' E 130°20'0 0.5
2015-Jul-28 17:32N 33°38' E 130°20'1110.8
2015-Jul-28 16:33N 33°49' E 130°19'232 8.2
2015-Jul-27 12:24N 34°36' E 134°54'1213.6
2015-Jul-27 11:33N 34°35' E 135°08'1413.8
2015-Jul-27 10:33N 34°32' E 135°24'0 0.0
2015-Jul-27 00:05N 34°32' E 135°25'0 0.0
2015-Jul-26 23:33N 34°32' E 135°25'2 2.2
2015-Jul-26 22:34N 34°33' E 135°23'3 2.7
2015-Jul-26 21:22N 34°32' E 135°19'0 0.0
2015-Jul-26 20:22N 34°32' E 135°19'0 0.0
2015-Jul-26 19:16N 34°32' E 135°19'0 0.0
2015-Jul-26 18:22N 34°32' E 135°19'0 0.0
2015-Jul-26 17:28N 34°32' E 135°19'0 0.0
2015-Jul-26 16:16N 34°32' E 135°19'0 0.0
2015-Jul-26 15:28N 34°32' E 135°19'3 3.2
2015-Jul-26 14:32N 34°33' E 135°15'1414.2
2015-Jul-26 13:32N 34°37' E 134°59'235 7.5
2015-Jul-25 06:15N 33°51' E 130°20'1014.4
2015-Jul-25 05:33N 33°42' E 130°16'8 7.9
2015-Jul-25 04:32N 33°36' E 130°23'0 0.0
2015-Jul-25 02:14N 33°36' E 130°23'0 0.0
2015-Jul-25 01:32N 33°36' E 130°23'0 0.0
2015-Jul-25 00:32N 33°36' E 130°23'1 0.6
2015-Jul-24 23:33N 33°37' E 130°23'2 1.5
2015-Jul-24 22:31N 33°37' E 130°21'0 0.0
2015-Jul-24 21:31N 33°37' E 130°21'1 1.0
2015-Jul-24 20:33N 33°38' E 130°20'1211.3
2015-Jul-24 19:30N 33°50' E 130°20'6 0.2
2015-Jul-23 07:15N 33°56' E 130°23'1014.7
2015-Jul-23 06:33N 33°46' E 130°18'1110.9
2015-Jul-23 05:33N 33°36' E 130°23'0 0.1
2015-Jul-23 04:25N 33°36' E 130°23'0 0.0
2015-Jul-23 03:31N 33°36' E 130°23'0 0.0
2015-Jul-23 02:28N 33°36' E 130°23'0 0.0
2015-Jul-23 01:31N 33°36' E 130°23'0 0.0
2015-Jul-23 00:31N 33°36' E 130°23'0 0.0
2015-Jul-22 23:31N 33°36' E 130°23'2 2.2
2015-Jul-22 22:33N 33°37' E 130°21'0 0.0
2015-Jul-22 21:32N 33°37' E 130°21'0 0.0
2015-Jul-22 20:32N 33°37' E 130°21'0 0.0
2015-Jul-22 19:32N 33°37' E 130°21'0 0.0
2015-Jul-22 18:32N 33°37' E 130°21'0 0.0
2015-Jul-22 17:32N 33°37' E 130°21'7 7.4
2015-Jul-22 16:33N 33°44' E 130°17'  

Dump ship's entire track history